Time;durP1;ratioP1;P1;durP2;ratioP2;P2;SDS_P1;SDS_P2;PMS_P1;PMS_P2;Temp;Humidity;BMP_temperature;BMP_pressure;BME280_temperature;BME280_humidity;BME280_pressure;Samples;Min_cycle;Max_cycle;Signal;HPM_P1;HPM_P2
2019/06/24 00:00:56;;;;;;;13.6;12.35;;;;;;;15.83;100;95648.17;;;;
2019/06/24 00:01:58;;;;;;;13.6;12.35;;;;;;;15.83;100;95648.17;;;;
2019/06/24 00:02:59;;;;;;;13.6;12.35;;;;;;;15.83;100;95648.17;;;;
2019/06/24 00:04:00;;;;;;;13.6;12.35;;;;;;;15.83;100;95648.17;;;;
2019/06/24 00:05:01;;;;;;;13.6;12.35;;;;;;;15.83;100;95648.17;;;;
2019/06/24 00:06:02;;;;;;;13.6;12.35;;;;;;;15.83;100;95648.17;;;;
2019/06/24 00:07:03;;;;;;;13.6;12.35;;;;;;;15.83;100;95648.17;;;;
2019/06/24 00:08:04;;;;;;;11.85;10.85;;;;;;;15.72;100;95647.39;;;;
2019/06/24 00:09:06;;;;;;;11.85;10.85;;;;;;;15.72;100;95647.39;;;;
2019/06/24 00:10:07;;;;;;;11.85;10.85;;;;;;;15.72;100;95647.39;;;;
2019/06/24 00:11:08;;;;;;;11.85;10.85;;;;;;;15.72;100;95647.39;;;;
2019/06/24 00:12:09;;;;;;;11.85;10.85;;;;;;;15.72;100;95647.39;;;;
2019/06/24 00:13:10;;;;;;;11.85;10.85;;;;;;;15.72;100;95647.39;;;;
2019/06/24 00:14:11;;;;;;;11.85;10.85;;;;;;;15.72;100;95647.39;;;;
2019/06/24 00:15:13;;;;;;;11.85;10.85;;;;;;;15.72;100;95647.39;;;;
2019/06/24 00:16:14;;;;;;;11.85;10.85;;;;;;;15.72;100;95647.39;;;;
2019/06/24 00:17:15;;;;;;;11.85;10.85;;;;;;;15.72;100;95647.39;;;;
2019/06/24 00:18:16;;;;;;;11.85;10.85;;;;;;;15.72;100;95647.39;;;;
2019/06/24 00:19:17;;;;;;;13.2;12.1;;;;;;;15.66;100;95647.34;;;;
2019/06/24 00:20:18;;;;;;;13.2;12.1;;;;;;;15.66;100;95647.34;;;;
2019/06/24 00:21:19;;;;;;;13.2;12.1;;;;;;;15.66;100;95647.34;;;;
2019/06/24 00:22:20;;;;;;;13.2;12.1;;;;;;;15.66;100;95647.34;;;;
2019/06/24 00:23:22;;;;;;;13.2;12.1;;;;;;;15.66;100;95647.34;;;;
2019/06/24 00:24:23;;;;;;;13.2;12.1;;;;;;;15.66;100;95647.34;;;;
2019/06/24 00:25:24;;;;;;;13.2;12.1;;;;;;;15.66;100;95647.34;;;;
2019/06/24 00:26:25;;;;;;;13.2;12.1;;;;;;;15.66;100;95647.34;;;;
2019/06/24 00:27:26;;;;;;;13.2;12.1;;;;;;;15.66;100;95647.34;;;;
2019/06/24 00:28:27;;;;;;;13.2;12.1;;;;;;;15.66;100;95647.34;;;;
2019/06/24 00:29:28;;;;;;;14.6;13.3;;;;;;;15.58;100;95651.89;;;;
2019/06/24 00:30:29;;;;;;;14.6;13.3;;;;;;;15.58;100;95651.89;;;;
2019/06/24 00:31:30;;;;;;;14.6;13.3;;;;;;;15.58;100;95651.89;;;;
2019/06/24 00:32:31;;;;;;;14.6;13.3;;;;;;;15.58;100;95651.89;;;;
2019/06/24 00:33:32;;;;;;;14.6;13.3;;;;;;;15.58;100;95651.89;;;;
2019/06/24 00:34:34;;;;;;;14.6;13.3;;;;;;;15.58;100;95651.89;;;;
2019/06/24 00:35:35;;;;;;;14.6;13.3;;;;;;;15.58;100;95651.89;;;;
2019/06/24 00:36:36;;;;;;;14.6;13.3;;;;;;;15.58;100;95651.89;;;;
2019/06/24 00:37:37;;;;;;;14.6;13.3;;;;;;;15.58;100;95651.89;;;;
2019/06/24 00:38:38;;;;;;;14.6;13.3;;;;;;;15.58;100;95651.89;;;;
2019/06/24 00:39:39;;;;;;;14.6;13.3;;;;;;;15.58;100;95651.89;;;;
2019/06/24 00:40:40;;;;;;;16.3;14.7;;;;;;;15.56;100;95651.31;;;;
2019/06/24 00:41:41;;;;;;;16.3;14.7;;;;;;;15.56;100;95651.31;;;;
2019/06/24 00:42:42;;;;;;;16.3;14.7;;;;;;;15.56;100;95651.31;;;;
2019/06/24 00:43:43;;;;;;;16.3;14.7;;;;;;;15.56;100;95651.31;;;;
2019/06/24 00:44:44;;;;;;;16.3;14.7;;;;;;;15.56;100;95651.31;;;;
2019/06/24 00:45:45;;;;;;;16.3;14.7;;;;;;;15.56;100;95651.31;;;;
2019/06/24 00:46:47;;;;;;;16.3;14.7;;;;;;;15.56;100;95651.31;;;;
2019/06/24 00:47:48;;;;;;;16.3;14.7;;;;;;;15.56;100;95651.31;;;;
2019/06/24 00:48:49;;;;;;;16.3;14.7;;;;;;;15.56;100;95651.31;;;;
2019/06/24 00:49:50;;;;;;;16.3;14.7;;;;;;;15.56;100;95651.31;;;;
2019/06/24 00:50:51;;;;;;;17.2;15.6;;;;;;;15.51;100;95658.2;;;;
2019/06/24 00:51:52;;;;;;;17.2;15.6;;;;;;;15.51;100;95658.2;;;;
2019/06/24 00:52:53;;;;;;;17.2;15.6;;;;;;;15.51;100;95658.2;;;;
2019/06/24 00:53:54;;;;;;;17.2;15.6;;;;;;;15.51;100;95658.2;;;;
2019/06/24 00:54:55;;;;;;;17.2;15.6;;;;;;;15.51;100;95658.2;;;;
2019/06/24 00:55:57;;;;;;;17.2;15.6;;;;;;;15.51;100;95658.2;;;;
2019/06/24 00:56:58;;;;;;;17.2;15.6;;;;;;;15.51;100;95658.2;;;;
2019/06/24 00:57:59;;;;;;;17.2;15.6;;;;;;;15.51;100;95658.2;;;;
2019/06/24 00:59:00;;;;;;;17.2;15.6;;;;;;;15.51;100;95658.2;;;;
2019/06/24 01:00:01;;;;;;;17.2;15.6;;;;;;;15.51;100;95658.2;;;;
2019/06/24 01:01:14;;;;;;;20.1;18.05;;;;;;;15.61;100;95648.64;;;;
2019/06/24 01:02:23;;;;;;;20.1;18.05;;;;;;;15.61;100;95648.64;;;;
2019/06/24 01:03:25;;;;;;;20.1;18.05;;;;;;;15.61;100;95648.64;;;;
2019/06/24 01:04:26;;;;;;;20.1;18.05;;;;;;;15.61;100;95648.64;;;;
2019/06/24 01:05:27;;;;;;;20.1;18.05;;;;;;;15.61;100;95648.64;;;;
2019/06/24 01:06:28;;;;;;;20.1;18.05;;;;;;;15.61;100;95648.64;;;;
2019/06/24 01:07:29;;;;;;;20.1;18.05;;;;;;;15.61;100;95648.64;;;;
2019/06/24 01:08:31;;;;;;;20.1;18.05;;;;;;;15.61;100;95648.64;;;;
2019/06/24 01:09:32;;;;;;;20.1;18.05;;;;;;;15.61;100;95648.64;;;;
2019/06/24 01:10:33;;;;;;;20.1;18.05;;;;;;;15.61;100;95648.64;;;;
2019/06/24 01:11:34;;;;;;;18.7;16.85;;;;;;;15.67;100;95643.68;;;;
2019/06/24 01:12:36;;;;;;;18.7;16.85;;;;;;;15.67;100;95643.68;;;;
2019/06/24 01:13:37;;;;;;;18.7;16.85;;;;;;;15.67;100;95643.68;;;;
2019/06/24 01:14:38;;;;;;;18.7;16.85;;;;;;;15.67;100;95643.68;;;;
2019/06/24 01:15:39;;;;;;;18.7;16.85;;;;;;;15.67;100;95643.68;;;;
2019/06/24 01:16:40;;;;;;;18.7;16.85;;;;;;;15.67;100;95643.68;;;;
2019/06/24 01:17:41;;;;;;;18.7;16.85;;;;;;;15.67;100;95643.68;;;;
2019/06/24 01:18:42;;;;;;;18.7;16.85;;;;;;;15.67;100;95643.68;;;;
2019/06/24 01:19:44;;;;;;;18.7;16.85;;;;;;;15.67;100;95643.68;;;;
2019/06/24 01:20:45;;;;;;;18.7;16.85;;;;;;;15.67;100;95643.68;;;;
2019/06/24 01:21:46;;;;;;;18.7;16.85;;;;;;;15.67;100;95643.68;;;;
2019/06/24 01:22:47;;;;;;;20.1;18.1;;;;;;;15.72;100;95634.6;;;;
2019/06/24 01:24:19;;;;;;;20.1;18.1;;;;;;;15.72;100;95634.6;;;;
2019/06/24 01:25:21;;;;;;;20.1;18.1;;;;;;;15.72;100;95634.6;;;;
2019/06/24 01:26:22;;;;;;;20.1;18.1;;;;;;;15.72;100;95634.6;;;;
2019/06/24 01:27:23;;;;;;;20.1;18.1;;;;;;;15.72;100;95634.6;;;;
2019/06/24 01:28:24;;;;;;;20.1;18.1;;;;;;;15.72;100;95634.6;;;;
2019/06/24 01:29:25;;;;;;;20.1;18.1;;;;;;;15.72;100;95634.6;;;;
2019/06/24 01:30:27;;;;;;;20.1;18.1;;;;;;;15.72;100;95634.6;;;;
2019/06/24 01:31:28;;;;;;;20.1;18.1;;;;;;;15.72;100;95634.6;;;;
2019/06/24 01:32:29;;;;;;;20.1;18.1;;;;;;;15.72;100;95634.6;;;;
2019/06/24 01:33:30;;;;;;;19.05;17.25;;;;;;;15.66;100;95625.56;;;;
2019/06/24 01:34:31;;;;;;;19.05;17.25;;;;;;;15.66;100;95625.56;;;;
2019/06/24 01:35:32;;;;;;;19.05;17.25;;;;;;;15.66;100;95625.56;;;;
2019/06/24 01:36:34;;;;;;;19.05;17.25;;;;;;;15.66;100;95625.56;;;;
2019/06/24 01:37:35;;;;;;;19.05;17.25;;;;;;;15.66;100;95625.56;;;;
2019/06/24 01:38:36;;;;;;;19.05;17.25;;;;;;;15.66;100;95625.56;;;;
2019/06/24 01:39:37;;;;;;;19.05;17.25;;;;;;;15.66;100;95625.56;;;;
2019/06/24 01:40:38;;;;;;;19.05;17.25;;;;;;;15.66;100;95625.56;;;;
2019/06/24 01:41:39;;;;;;;19.05;17.25;;;;;;;15.66;100;95625.56;;;;
2019/06/24 01:42:41;;;;;;;19.05;17.25;;;;;;;15.66;100;95625.56;;;;
2019/06/24 01:43:42;;;;;;;17.95;16.15;;;;;;;15.64;100;95620.92;;;;
2019/06/24 01:44:43;;;;;;;17.95;16.15;;;;;;;15.64;100;95620.92;;;;
2019/06/24 01:45:44;;;;;;;17.95;16.15;;;;;;;15.64;100;95620.92;;;;
2019/06/24 01:46:46;;;;;;;17.95;16.15;;;;;;;15.64;100;95620.92;;;;
2019/06/24 01:47:47;;;;;;;17.95;16.15;;;;;;;15.64;100;95620.92;;;;
2019/06/24 01:48:48;;;;;;;17.95;16.15;;;;;;;15.64;100;95620.92;;;;
2019/06/24 01:49:49;;;;;;;17.95;16.15;;;;;;;15.64;100;95620.92;;;;
2019/06/24 01:50:50;;;;;;;17.95;16.15;;;;;;;15.64;100;95620.92;;;;
2019/06/24 01:51:51;;;;;;;17.95;16.15;;;;;;;15.64;100;95620.92;;;;
2019/06/24 01:52:52;;;;;;;17.95;16.15;;;;;;;15.64;100;95620.92;;;;
2019/06/24 01:53:54;;;;;;;16.15;14.5;;;;;;;15.51;100;95627.31;;;;
2019/06/24 01:54:55;;;;;;;16.15;14.5;;;;;;;15.51;100;95627.31;;;;
2019/06/24 01:55:56;;;;;;;16.15;14.5;;;;;;;15.51;100;95627.31;;;;
2019/06/24 01:56:58;;;;;;;16.15;14.5;;;;;;;15.51;100;95627.31;;;;
2019/06/24 01:57:59;;;;;;;16.15;14.5;;;;;;;15.51;100;95627.31;;;;
2019/06/24 01:59:00;;;;;;;16.15;14.5;;;;;;;15.51;100;95627.31;;;;
2019/06/24 02:00:01;;;;;;;16.15;14.5;;;;;;;15.51;100;95627.31;;;;
2019/06/24 02:01:03;;;;;;;16.15;14.5;;;;;;;15.51;100;95627.31;;;;
2019/06/24 02:02:05;;;;;;;16.15;14.5;;;;;;;15.51;100;95627.31;;;;
2019/06/24 02:03:06;;;;;;;16.15;14.5;;;;;;;15.51;100;95627.31;;;;
2019/06/24 02:04:07;;;;;;;16.15;14.5;;;;;;;15.51;100;95627.31;;;;
2019/06/24 02:05:08;;;;;;;18.7;16.4;;;;;;;15.39;100;95619.3;;;;
2019/06/24 02:06:10;;;;;;;18.7;16.4;;;;;;;15.39;100;95619.3;;;;
2019/06/24 02:07:11;;;;;;;18.7;16.4;;;;;;;15.39;100;95619.3;;;;
2019/06/24 02:08:12;;;;;;;18.7;16.4;;;;;;;15.39;100;95619.3;;;;
2019/06/24 02:09:13;;;;;;;18.7;16.4;;;;;;;15.39;100;95619.3;;;;
2019/06/24 02:10:15;;;;;;;18.7;16.4;;;;;;;15.39;100;95619.3;;;;
2019/06/24 02:11:16;;;;;;;18.7;16.4;;;;;;;15.39;100;95619.3;;;;
2019/06/24 02:12:17;;;;;;;18.7;16.4;;;;;;;15.39;100;95619.3;;;;
2019/06/24 02:13:19;;;;;;;18.7;16.4;;;;;;;15.39;100;95619.3;;;;
2019/06/24 02:14:20;;;;;;;18.7;16.4;;;;;;;15.39;100;95619.3;;;;
2019/06/24 02:15:21;;;;;;;18.25;16.45;;;;;;;15.23;100;95624.42;;;;
2019/06/24 02:16:22;;;;;;;18.25;16.45;;;;;;;15.23;100;95624.42;;;;
2019/06/24 02:17:31;;;;;;;18.25;16.45;;;;;;;15.23;100;95624.42;;;;
2019/06/24 02:18:46;;;;;;;18.25;16.45;;;;;;;15.23;100;95624.42;;;;
2019/06/24 02:19:47;;;;;;;18.25;16.45;;;;;;;15.23;100;95624.42;;;;
2019/06/24 02:20:48;;;;;;;18.25;16.45;;;;;;;15.23;100;95624.42;;;;
2019/06/24 02:21:50;;;;;;;18.25;16.45;;;;;;;15.23;100;95624.42;;;;
2019/06/24 02:22:51;;;;;;;18.25;16.45;;;;;;;15.23;100;95624.42;;;;
2019/06/24 02:23:52;;;;;;;18.25;16.45;;;;;;;15.23;100;95624.42;;;;
2019/06/24 02:24:54;;;;;;;18.25;16.45;;;;;;;15.23;100;95624.42;;;;
2019/06/24 02:25:55;;;;;;;19.45;17.55;;;;;;;15.14;100;95616.85;;;;
2019/06/24 02:26:56;;;;;;;19.45;17.55;;;;;;;15.14;100;95616.85;;;;
2019/06/24 02:27:57;;;;;;;19.45;17.55;;;;;;;15.14;100;95616.85;;;;
2019/06/24 02:28:58;;;;;;;19.45;17.55;;;;;;;15.14;100;95616.85;;;;
2019/06/24 02:29:59;;;;;;;19.45;17.55;;;;;;;15.14;100;95616.85;;;;
2019/06/24 02:31:01;;;;;;;19.45;17.55;;;;;;;15.14;100;95616.85;;;;
2019/06/24 02:32:02;;;;;;;19.45;17.55;;;;;;;15.14;100;95616.85;;;;
2019/06/24 02:33:03;;;;;;;19.45;17.55;;;;;;;15.14;100;95616.85;;;;
2019/06/24 02:34:04;;;;;;;19.45;17.55;;;;;;;15.14;100;95616.85;;;;
2019/06/24 02:35:06;;;;;;;19.45;17.55;;;;;;;15.14;100;95616.85;;;;
2019/06/24 02:36:07;;;;;;;19.45;17.55;;;;;;;15.14;100;95616.85;;;;
2019/06/24 02:37:08;;;;;;;19.95;17.9;;;;;;;15.02;100;95619.31;;;;
2019/06/24 02:38:09;;;;;;;19.95;17.9;;;;;;;15.02;100;95619.31;;;;
2019/06/24 02:39:10;;;;;;;19.95;17.9;;;;;;;15.02;100;95619.31;;;;
2019/06/24 02:40:11;;;;;;;19.95;17.9;;;;;;;15.02;100;95619.31;;;;
2019/06/24 02:41:14;;;;;;;19.95;17.9;;;;;;;15.02;100;95619.31;;;;
2019/06/24 02:42:15;;;;;;;19.95;17.9;;;;;;;15.02;100;95619.31;;;;
2019/06/24 02:43:16;;;;;;;19.95;17.9;;;;;;;15.02;100;95619.31;;;;
2019/06/24 02:44:18;;;;;;;19.95;17.9;;;;;;;15.02;100;95619.31;;;;
2019/06/24 02:45:19;;;;;;;19.95;17.9;;;;;;;15.02;100;95619.31;;;;
2019/06/24 02:46:20;;;;;;;19.95;17.9;;;;;;;15.02;100;95619.31;;;;
2019/06/24 02:47:21;;;;;;;22.6;20.05;;;;;;;14.97;100;95616.09;;;;
2019/06/24 02:48:22;;;;;;;22.6;20.05;;;;;;;14.97;100;95616.09;;;;
2019/06/24 02:49:23;;;;;;;22.6;20.05;;;;;;;14.97;100;95616.09;;;;
2019/06/24 02:50:25;;;;;;;22.6;20.05;;;;;;;14.97;100;95616.09;;;;
2019/06/24 02:51:26;;;;;;;22.6;20.05;;;;;;;14.97;100;95616.09;;;;
2019/06/24 02:52:27;;;;;;;22.6;20.05;;;;;;;14.97;100;95616.09;;;;
2019/06/24 02:53:28;;;;;;;22.6;20.05;;;;;;;14.97;100;95616.09;;;;
2019/06/24 02:54:29;;;;;;;22.6;20.05;;;;;;;14.97;100;95616.09;;;;
2019/06/24 02:55:30;;;;;;;22.6;20.05;;;;;;;14.97;100;95616.09;;;;
2019/06/24 02:56:31;;;;;;;22.6;20.05;;;;;;;14.97;100;95616.09;;;;
2019/06/24 02:57:32;;;;;;;26.55;23.65;;;;;;;14.92;100;95637.8;;;;
2019/06/24 02:58:33;;;;;;;26.55;23.65;;;;;;;14.92;100;95637.8;;;;
2019/06/24 02:59:34;;;;;;;26.55;23.65;;;;;;;14.92;100;95637.8;;;;
2019/06/24 03:00:36;;;;;;;26.55;23.65;;;;;;;14.92;100;95637.8;;;;
2019/06/24 03:01:39;;;;;;;26.55;23.65;;;;;;;14.92;100;95637.8;;;;
2019/06/24 03:02:40;;;;;;;26.55;23.65;;;;;;;14.92;100;95637.8;;;;
2019/06/24 03:03:41;;;;;;;26.55;23.65;;;;;;;14.92;100;95637.8;;;;
2019/06/24 03:04:42;;;;;;;26.55;23.65;;;;;;;14.92;100;95637.8;;;;
2019/06/24 03:05:43;;;;;;;26.55;23.65;;;;;;;14.92;100;95637.8;;;;
2019/06/24 03:06:44;;;;;;;26.55;23.65;;;;;;;14.92;100;95637.8;;;;
2019/06/24 03:07:45;;;;;;;26.55;23.65;;;;;;;14.92;100;95637.8;;;;
2019/06/24 03:08:47;;;;;;;26.05;21.1;;;;;;;14.96;100;95638.83;;;;
2019/06/24 03:09:48;;;;;;;26.05;21.1;;;;;;;14.96;100;95638.83;;;;
2019/06/24 03:10:49;;;;;;;26.05;21.1;;;;;;;14.96;100;95638.83;;;;
2019/06/24 03:11:50;;;;;;;26.05;21.1;;;;;;;14.96;100;95638.83;;;;
2019/06/24 03:12:51;;;;;;;26.05;21.1;;;;;;;14.96;100;95638.83;;;;
2019/06/24 03:13:52;;;;;;;26.05;21.1;;;;;;;14.96;100;95638.83;;;;
2019/06/24 03:14:53;;;;;;;26.05;21.1;;;;;;;14.96;100;95638.83;;;;
2019/06/24 03:15:54;;;;;;;26.05;21.1;;;;;;;14.96;100;95638.83;;;;
2019/06/24 03:16:55;;;;;;;26.05;21.1;;;;;;;14.96;100;95638.83;;;;
2019/06/24 03:17:56;;;;;;;26.05;21.1;;;;;;;14.96;100;95638.83;;;;
2019/06/24 03:18:57;;;;;;;27.2;24.15;;;;;;;14.92;100;95651.28;;;;
2019/06/24 03:19:58;;;;;;;27.2;24.15;;;;;;;14.92;100;95651.28;;;;
2019/06/24 03:21:00;;;;;;;27.2;24.15;;;;;;;14.92;100;95651.28;;;;
2019/06/24 03:22:01;;;;;;;27.2;24.15;;;;;;;14.92;100;95651.28;;;;
2019/06/24 03:23:02;;;;;;;27.2;24.15;;;;;;;14.92;100;95651.28;;;;
2019/06/24 03:24:03;;;;;;;27.2;24.15;;;;;;;14.92;100;95651.28;;;;
2019/06/24 03:25:04;;;;;;;27.2;24.15;;;;;;;14.92;100;95651.28;;;;
2019/06/24 03:26:12;;;;;;;27.2;24.15;;;;;;;14.92;100;95651.28;;;;
2019/06/24 03:27:15;;;;;;;27.2;24.15;;;;;;;14.92;100;95651.28;;;;
2019/06/24 03:28:16;;;;;;;27.2;24.15;;;;;;;14.92;100;95651.28;;;;
2019/06/24 03:29:17;;;;;;;27.85;23.95;;;;;;;15;100;95660.49;;;;
2019/06/24 03:30:18;;;;;;;27.85;23.95;;;;;;;15;100;95660.49;;;;
2019/06/24 03:31:20;;;;;;;27.85;23.95;;;;;;;15;100;95660.49;;;;
2019/06/24 03:32:21;;;;;;;27.85;23.95;;;;;;;15;100;95660.49;;;;
2019/06/24 03:33:22;;;;;;;27.85;23.95;;;;;;;15;100;95660.49;;;;
2019/06/24 03:34:23;;;;;;;27.85;23.95;;;;;;;15;100;95660.49;;;;
2019/06/24 03:35:24;;;;;;;27.85;23.95;;;;;;;15;100;95660.49;;;;
2019/06/24 03:36:25;;;;;;;27.85;23.95;;;;;;;15;100;95660.49;;;;
2019/06/24 03:37:26;;;;;;;27.85;23.95;;;;;;;15;100;95660.49;;;;
2019/06/24 03:38:28;;;;;;;27.85;23.95;;;;;;;15;100;95660.49;;;;
2019/06/24 03:39:29;;;;;;;27.85;23.95;;;;;;;15;100;95660.49;;;;
2019/06/24 03:40:30;;;;;;;24.55;21.45;;;;;;;14.98;100;95658.54;;;;
2019/06/24 03:41:31;;;;;;;24.55;21.45;;;;;;;14.98;100;95658.54;;;;
2019/06/24 03:42:32;;;;;;;24.55;21.45;;;;;;;14.98;100;95658.54;;;;
2019/06/24 03:43:33;;;;;;;24.55;21.45;;;;;;;14.98;100;95658.54;;;;
2019/06/24 03:44:34;;;;;;;24.55;21.45;;;;;;;14.98;100;95658.54;;;;
2019/06/24 03:45:35;;;;;;;24.55;21.45;;;;;;;14.98;100;95658.54;;;;
2019/06/24 03:46:36;;;;;;;24.55;21.45;;;;;;;14.98;100;95658.54;;;;
2019/06/24 03:47:38;;;;;;;24.55;21.45;;;;;;;14.98;100;95658.54;;;;
2019/06/24 03:48:39;;;;;;;24.55;21.45;;;;;;;14.98;100;95658.54;;;;
2019/06/24 03:49:40;;;;;;;24.55;21.45;;;;;;;14.98;100;95658.54;;;;
2019/06/24 03:50:47;;;;;;;24.95;22.25;;;;;;;14.98;100;95668.06;;;;
2019/06/24 03:51:53;;;;;;;24.95;22.25;;;;;;;14.98;100;95668.06;;;;
2019/06/24 03:53:09;;;;;;;24.95;22.25;;;;;;;14.98;100;95668.06;;;;
2019/06/24 03:54:10;;;;;;;24.95;22.25;;;;;;;14.98;100;95668.06;;;;
2019/06/24 03:55:11;;;;;;;24.95;22.25;;;;;;;14.98;100;95668.06;;;;
2019/06/24 03:56:12;;;;;;;24.95;22.25;;;;;;;14.98;100;95668.06;;;;
2019/06/24 03:57:14;;;;;;;24.95;22.25;;;;;;;14.98;100;95668.06;;;;
2019/06/24 03:58:15;;;;;;;24.95;22.25;;;;;;;14.98;100;95668.06;;;;
2019/06/24 03:59:16;;;;;;;24.95;22.25;;;;;;;14.98;100;95668.06;;;;
2019/06/24 04:00:17;;;;;;;24.95;22.25;;;;;;;14.98;100;95668.06;;;;
2019/06/24 04:01:18;;;;;;;30.75;25.3;;;;;;;15.01;100;95663.89;;;;
2019/06/24 04:02:19;;;;;;;30.75;25.3;;;;;;;15.01;100;95663.89;;;;
2019/06/24 04:03:20;;;;;;;30.75;25.3;;;;;;;15.01;100;95663.89;;;;
2019/06/24 04:04:21;;;;;;;30.75;25.3;;;;;;;15.01;100;95663.89;;;;
2019/06/24 04:05:22;;;;;;;30.75;25.3;;;;;;;15.01;100;95663.89;;;;
2019/06/24 04:06:23;;;;;;;30.75;25.3;;;;;;;15.01;100;95663.89;;;;
2019/06/24 04:07:24;;;;;;;30.75;25.3;;;;;;;15.01;100;95663.89;;;;
2019/06/24 04:08:25;;;;;;;30.75;25.3;;;;;;;15.01;100;95663.89;;;;
2019/06/24 04:09:27;;;;;;;30.75;25.3;;;;;;;15.01;100;95663.89;;;;
2019/06/24 04:10:28;;;;;;;30.75;25.3;;;;;;;15.01;100;95663.89;;;;
2019/06/24 04:11:29;;;;;;;30.75;25.3;;;;;;;15.01;100;95663.89;;;;
2019/06/24 04:12:30;;;;;;;28.75;24.85;;;;;;;15.13;100;95655.45;;;;
2019/06/24 04:13:31;;;;;;;28.75;24.85;;;;;;;15.13;100;95655.45;;;;
2019/06/24 04:14:32;;;;;;;28.75;24.85;;;;;;;15.13;100;95655.45;;;;
2019/06/24 04:15:33;;;;;;;28.75;24.85;;;;;;;15.13;100;95655.45;;;;
2019/06/24 04:16:35;;;;;;;28.75;24.85;;;;;;;15.13;100;95655.45;;;;
2019/06/24 04:17:36;;;;;;;28.75;24.85;;;;;;;15.13;100;95655.45;;;;
2019/06/24 04:18:37;;;;;;;28.75;24.85;;;;;;;15.13;100;95655.45;;;;
2019/06/24 04:19:38;;;;;;;28.75;24.85;;;;;;;15.13;100;95655.45;;;;
2019/06/24 04:20:39;;;;;;;28.75;24.85;;;;;;;15.13;100;95655.45;;;;
2019/06/24 04:21:40;;;;;;;28.75;24.85;;;;;;;15.13;100;95655.45;;;;
2019/06/24 04:22:41;;;;;;;27.95;24.7;;;;;;;15.22;100;95668.47;;;;
2019/06/24 04:23:42;;;;;;;27.95;24.7;;;;;;;15.22;100;95668.47;;;;
2019/06/24 04:24:43;;;;;;;27.95;24.7;;;;;;;15.22;100;95668.47;;;;
2019/06/24 04:25:45;;;;;;;27.95;24.7;;;;;;;15.22;100;95668.47;;;;
2019/06/24 04:26:46;;;;;;;27.95;24.7;;;;;;;15.22;100;95668.47;;;;
2019/06/24 04:27:47;;;;;;;27.95;24.7;;;;;;;15.22;100;95668.47;;;;
2019/06/24 04:28:48;;;;;;;27.95;24.7;;;;;;;15.22;100;95668.47;;;;
2019/06/24 04:29:49;;;;;;;27.95;24.7;;;;;;;15.22;100;95668.47;;;;
2019/06/24 04:30:50;;;;;;;27.95;24.7;;;;;;;15.22;100;95668.47;;;;
2019/06/24 04:31:51;;;;;;;27.95;24.7;;;;;;;15.22;100;95668.47;;;;
2019/06/24 04:32:52;;;;;;;26.3;23.5;;;;;;;15.39;100;95675.61;;;;
2019/06/24 04:33:53;;;;;;;26.3;23.5;;;;;;;15.39;100;95675.61;;;;
2019/06/24 04:34:54;;;;;;;26.3;23.5;;;;;;;15.39;100;95675.61;;;;
2019/06/24 04:35:55;;;;;;;26.3;23.5;;;;;;;15.39;100;95675.61;;;;
2019/06/24 04:36:57;;;;;;;26.3;23.5;;;;;;;15.39;100;95675.61;;;;
2019/06/24 04:37:58;;;;;;;26.3;23.5;;;;;;;15.39;100;95675.61;;;;
2019/06/24 04:38:59;;;;;;;26.3;23.5;;;;;;;15.39;100;95675.61;;;;
2019/06/24 04:40:00;;;;;;;26.3;23.5;;;;;;;15.39;100;95675.61;;;;
2019/06/24 04:41:01;;;;;;;26.3;23.5;;;;;;;15.39;100;95675.61;;;;
2019/06/24 04:42:02;;;;;;;26.3;23.5;;;;;;;15.39;100;95675.61;;;;
2019/06/24 04:43:03;;;;;;;26.3;23.5;;;;;;;15.39;100;95675.61;;;;
2019/06/24 04:44:05;;;;;;;25.65;22.95;;;;;;;15.53;100;95671.84;;;;
2019/06/24 04:45:06;;;;;;;25.65;22.95;;;;;;;15.53;100;95671.84;;;;
2019/06/24 04:46:07;;;;;;;25.65;22.95;;;;;;;15.53;100;95671.84;;;;
2019/06/24 04:47:08;;;;;;;25.65;22.95;;;;;;;15.53;100;95671.84;;;;
2019/06/24 04:48:09;;;;;;;25.65;22.95;;;;;;;15.53;100;95671.84;;;;
2019/06/24 04:49:10;;;;;;;25.65;22.95;;;;;;;15.53;100;95671.84;;;;
2019/06/24 04:50:11;;;;;;;25.65;22.95;;;;;;;15.53;100;95671.84;;;;
2019/06/24 04:51:13;;;;;;;25.65;22.95;;;;;;;15.53;100;95671.84;;;;
2019/06/24 04:52:14;;;;;;;25.65;22.95;;;;;;;15.53;100;95671.84;;;;
2019/06/24 04:53:15;;;;;;;25.65;22.95;;;;;;;15.53;100;95671.84;;;;
2019/06/24 04:54:16;;;;;;;25.5;23.00001;;;;;;;15.77;100;95677.26;;;;
2019/06/24 04:55:17;;;;;;;25.5;23.00001;;;;;;;15.77;100;95677.26;;;;
2019/06/24 04:56:33;;;;;;;25.5;23.00001;;;;;;;15.77;100;95677.26;;;;
2019/06/24 04:57:34;;;;;;;25.5;23.00001;;;;;;;15.77;100;95677.26;;;;
2019/06/24 04:58:36;;;;;;;25.5;23.00001;;;;;;;15.77;100;95677.26;;;;
2019/06/24 04:59:37;;;;;;;25.5;23.00001;;;;;;;15.77;100;95677.26;;;;
2019/06/24 05:00:38;;;;;;;25.5;23.00001;;;;;;;15.77;100;95677.26;;;;
2019/06/24 05:01:39;;;;;;;25.5;23.00001;;;;;;;15.77;100;95677.26;;;;
2019/06/24 05:02:40;;;;;;;25.5;23.00001;;;;;;;15.77;100;95677.26;;;;
2019/06/24 05:03:41;;;;;;;25.5;23.00001;;;;;;;15.77;100;95677.26;;;;
2019/06/24 05:04:42;;;;;;;21.25;19.2;;;;;;;15.97;100;95674.69;;;;
2019/06/24 05:05:43;;;;;;;21.25;19.2;;;;;;;15.97;100;95674.69;;;;
2019/06/24 05:06:44;;;;;;;21.25;19.2;;;;;;;15.97;100;95674.69;;;;
2019/06/24 05:07:45;;;;;;;21.25;19.2;;;;;;;15.97;100;95674.69;;;;
2019/06/24 05:08:46;;;;;;;21.25;19.2;;;;;;;15.97;100;95674.69;;;;
2019/06/24 05:09:47;;;;;;;21.25;19.2;;;;;;;15.97;100;95674.69;;;;
2019/06/24 05:10:49;;;;;;;21.25;19.2;;;;;;;15.97;100;95674.69;;;;
2019/06/24 05:11:50;;;;;;;21.25;19.2;;;;;;;15.97;100;95674.69;;;;
2019/06/24 05:12:51;;;;;;;21.25;19.2;;;;;;;15.97;100;95674.69;;;;
2019/06/24 05:13:52;;;;;;;21.25;19.2;;;;;;;15.97;100;95674.69;;;;
2019/06/24 05:14:53;;;;;;;21.25;19.2;;;;;;;15.97;100;95674.69;;;;
2019/06/24 05:15:54;;;;;;;19.35;17.45;;;;;;;16.26;100;95668.41;;;;
2019/06/24 05:16:55;;;;;;;19.35;17.45;;;;;;;16.26;100;95668.41;;;;
2019/06/24 05:17:57;;;;;;;19.35;17.45;;;;;;;16.26;100;95668.41;;;;
2019/06/24 05:18:58;;;;;;;19.35;17.45;;;;;;;16.26;100;95668.41;;;;
2019/06/24 05:19:59;;;;;;;19.35;17.45;;;;;;;16.26;100;95668.41;;;;
2019/06/24 05:21:00;;;;;;;19.35;17.45;;;;;;;16.26;100;95668.41;;;;
2019/06/24 05:22:02;;;;;;;19.35;17.45;;;;;;;16.26;100;95668.41;;;;
2019/06/24 05:23:03;;;;;;;19.35;17.45;;;;;;;16.26;100;95668.41;;;;
2019/06/24 05:24:04;;;;;;;19.35;17.45;;;;;;;16.26;100;95668.41;;;;
2019/06/24 05:25:05;;;;;;;19.35;17.45;;;;;;;16.26;100;95668.41;;;;
2019/06/24 05:26:07;;;;;;;17.65;16;;;;;;;16.46;100;95676.68;;;;
2019/06/24 05:27:08;;;;;;;17.65;16;;;;;;;16.46;100;95676.68;;;;
2019/06/24 05:28:09;;;;;;;17.65;16;;;;;;;16.46;100;95676.68;;;;
2019/06/24 05:29:10;;;;;;;17.65;16;;;;;;;16.46;100;95676.68;;;;
2019/06/24 05:30:11;;;;;;;17.65;16;;;;;;;16.46;100;95676.68;;;;
2019/06/24 05:31:23;;;;;;;17.65;16;;;;;;;16.46;100;95676.68;;;;
2019/06/24 05:32:24;;;;;;;17.65;16;;;;;;;16.46;100;95676.68;;;;
2019/06/24 05:33:25;;;;;;;17.65;16;;;;;;;16.46;100;95676.68;;;;
2019/06/24 05:34:26;;;;;;;17.65;16;;;;;;;16.46;100;95676.68;;;;
2019/06/24 05:35:27;;;;;;;17.65;16;;;;;;;16.46;100;95676.68;;;;
2019/06/24 05:36:28;;;;;;;15.3;13.9;;;;;;;16.78;100;95690.7;;;;
2019/06/24 05:37:29;;;;;;;15.3;13.9;;;;;;;16.78;100;95690.7;;;;
2019/06/24 05:38:30;;;;;;;15.3;13.9;;;;;;;16.78;100;95690.7;;;;
2019/06/24 05:39:31;;;;;;;15.3;13.9;;;;;;;16.78;100;95690.7;;;;
2019/06/24 05:40:33;;;;;;;15.3;13.9;;;;;;;16.78;100;95690.7;;;;
2019/06/24 05:41:34;;;;;;;15.3;13.9;;;;;;;16.78;100;95690.7;;;;
2019/06/24 05:42:35;;;;;;;15.3;13.9;;;;;;;16.78;100;95690.7;;;;
2019/06/24 05:43:36;;;;;;;15.3;13.9;;;;;;;16.78;100;95690.7;;;;
2019/06/24 05:44:38;;;;;;;15.3;13.9;;;;;;;16.78;100;95690.7;;;;
2019/06/24 05:45:39;;;;;;;15.3;13.9;;;;;;;16.78;100;95690.7;;;;
2019/06/24 05:46:40;;;;;;;15.3;13.9;;;;;;;16.78;100;95690.7;;;;
2019/06/24 05:47:41;;;;;;;13.6;12.4;;;;;;;17.15;100;95694.56;;;;
2019/06/24 05:48:42;;;;;;;13.6;12.4;;;;;;;17.15;100;95694.56;;;;
2019/06/24 05:49:43;;;;;;;13.6;12.4;;;;;;;17.15;100;95694.56;;;;
2019/06/24 05:50:44;;;;;;;13.6;12.4;;;;;;;17.15;100;95694.56;;;;
2019/06/24 05:51:45;;;;;;;13.6;12.4;;;;;;;17.15;100;95694.56;;;;
2019/06/24 05:52:46;;;;;;;13.6;12.4;;;;;;;17.15;100;95694.56;;;;
2019/06/24 05:53:47;;;;;;;13.6;12.4;;;;;;;17.15;100;95694.56;;;;
2019/06/24 05:54:49;;;;;;;13.6;12.4;;;;;;;17.15;100;95694.56;;;;
2019/06/24 05:55:50;;;;;;;13.6;12.4;;;;;;;17.15;100;95694.56;;;;
2019/06/24 05:56:51;;;;;;;13.6;12.4;;;;;;;17.15;100;95694.56;;;;
2019/06/24 05:57:52;;;;;;;12.75;11.45;;;;;;;17.57;100;95701.72;;;;
2019/06/24 05:58:53;;;;;;;12.75;11.45;;;;;;;17.57;100;95701.72;;;;
2019/06/24 05:59:54;;;;;;;12.75;11.45;;;;;;;17.57;100;95701.72;;;;
2019/06/24 06:00:55;;;;;;;12.75;11.45;;;;;;;17.57;100;95701.72;;;;
2019/06/24 06:01:57;;;;;;;12.75;11.45;;;;;;;17.57;100;95701.72;;;;
2019/06/24 06:02:58;;;;;;;12.75;11.45;;;;;;;17.57;100;95701.72;;;;
2019/06/24 06:03:59;;;;;;;12.75;11.45;;;;;;;17.57;100;95701.72;;;;
2019/06/24 06:05:00;;;;;;;12.75;11.45;;;;;;;17.57;100;95701.72;;;;
2019/06/24 06:06:01;;;;;;;12.75;11.45;;;;;;;17.57;100;95701.72;;;;
2019/06/24 06:07:02;;;;;;;12.75;11.45;;;;;;;17.57;100;95701.72;;;;
2019/06/24 06:08:04;;;;;;;12.75;11.45;;;;;;;17.57;100;95701.72;;;;
2019/06/24 06:09:05;;;;;;;11.2;10.15;;;;;;;17.96;100;95700.27;;;;